createdAt,value
2016-12-20T00:00:14.138Z,1018.6
2016-12-20T00:01:17.584Z,1018.55
2016-12-20T00:02:21.031Z,1018.55
2016-12-20T00:03:24.500Z,1018.62
2016-12-20T00:04:27.951Z,1018.65
2016-12-20T00:05:31.395Z,1018.53
2016-12-20T00:06:34.862Z,1018.57
2016-12-20T00:07:38.309Z,1018.51
2016-12-20T00:08:41.759Z,1018.52
2016-12-20T00:09:45.223Z,1018.54
2016-12-20T00:10:48.672Z,1018.5
2016-12-20T00:11:52.119Z,1018.48
2016-12-20T00:12:55.585Z,1018.41
2016-12-20T00:13:59.033Z,1018.42
2016-12-20T00:15:02.480Z,1018.37
2016-12-20T00:16:05.932Z,1018.35
2016-12-20T00:17:09.375Z,1018.38
2016-12-20T00:18:12.827Z,1018.3
2016-12-20T00:19:16.280Z,1018.31
2016-12-20T00:20:19.726Z,1018.32
2016-12-20T00:21:23.189Z,1018.28
2016-12-20T00:22:26.639Z,1018.25
2016-12-20T00:23:30.086Z,1018.2
2016-12-20T00:24:33.544Z,1018.17
2016-12-20T00:25:36.992Z,1018.14
2016-12-20T00:26:40.438Z,1018.18
2016-12-20T00:27:43.906Z,1018.17
2016-12-20T00:28:47.354Z,1018.23
2016-12-20T00:29:50.803Z,1018.19
2016-12-20T00:30:54.268Z,1018.21
2016-12-20T00:31:57.716Z,1018.22
2016-12-20T00:33:01.165Z,1018.24
2016-12-20T00:34:04.629Z,1018.27
2016-12-20T00:35:08.078Z,1018.19
2016-12-20T00:36:11.520Z,1018.2
2016-12-20T00:37:14.978Z,1018.15
2016-12-20T00:38:18.420Z,1018.16
2016-12-20T00:39:21.871Z,1018.12
2016-12-20T00:40:25.321Z,1018.14
2016-12-20T00:41:28.765Z,1018.17
2016-12-20T00:42:32.227Z,1018.15
2016-12-20T00:43:35.673Z,1018.18
2016-12-20T00:44:39.122Z,1018.15
2016-12-20T00:45:42.589Z,1018.14
2016-12-20T00:46:46.036Z,1018.15
2016-12-20T01:03:53.328Z,1018.37
2016-12-20T01:04:56.771Z,1018.44
2016-12-20T01:06:00.235Z,1018.42
2016-12-20T01:07:03.686Z,1018.44
2016-12-20T01:08:07.130Z,1018.4
2016-12-20T01:09:10.590Z,1018.39
2016-12-20T01:10:14.038Z,1018.35
2016-12-20T01:11:17.482Z,1018.39
2016-12-20T01:12:20.936Z,1018.39
2016-12-20T01:13:24.378Z,1018.39
2016-12-20T01:14:27.841Z,1018.4
2016-12-20T01:15:31.289Z,1018.35
2016-12-20T01:16:34.740Z,1018.32
2016-12-20T01:17:38.194Z,1018.32
2016-12-20T01:18:41.641Z,1018.34
2016-12-20T01:19:45.081Z,1018.34
2016-12-20T01:20:48.548Z,1018.34
2016-12-20T01:21:52.001Z,1018.34
2016-12-20T01:22:55.443Z,1018.31
2016-12-20T01:23:58.910Z,1018.33
2016-12-20T01:25:02.357Z,1018.36
2016-12-20T01:26:05.805Z,1018.36
2016-12-20T01:27:09.272Z,1018.35
2016-12-20T01:28:12.721Z,1018.27
2016-12-20T01:29:16.166Z,1018.2
2016-12-20T01:30:19.618Z,1018.18
2016-12-20T01:31:23.061Z,1018.18
2016-12-20T01:32:26.519Z,1018.18
2016-12-20T01:33:29.970Z,1018.22
2016-12-20T01:34:33.415Z,1018.29
2016-12-20T01:35:36.876Z,1018.31
2016-12-20T01:36:40.329Z,1018.38
2016-12-20T01:37:43.771Z,1018.36
2016-12-20T01:38:47.231Z,1018.37
2016-12-20T01:39:50.678Z,1018.32
2016-12-20T01:40:54.125Z,1018.33
2016-12-20T01:41:57.594Z,1018.28
2016-12-20T01:43:01.042Z,1018.26
2016-12-20T01:44:04.489Z,1018.2
2016-12-20T01:45:07.955Z,1018.12
2016-12-20T01:46:11.403Z,1018.05
2016-12-20T01:47:14.849Z,1018.05
2016-12-20T01:48:18.317Z,1018.02
2016-12-20T01:49:21.764Z,1018.01
2016-12-20T01:50:25.211Z,1018.05
2016-12-20T01:51:28.678Z,1018.02
2016-12-20T01:52:32.126Z,1018.05
2016-12-20T01:53:35.571Z,1018.04
2016-12-20T01:54:39.040Z,1018.07
2016-12-20T01:55:42.487Z,1018.08
2016-12-20T01:56:45.935Z,1018.07
2016-12-20T01:57:49.403Z,1018.04
2016-12-20T01:58:52.849Z,1018.07
2016-12-20T01:59:56.297Z,1018.04
2016-12-20T02:00:59.764Z,1018
2016-12-20T02:02:03.213Z,1017.98
2016-12-20T02:03:06.657Z,1017.96
2016-12-20T02:04:10.111Z,1018.01
2016-12-20T02:05:13.553Z,1018.01
2016-12-20T02:06:17.006Z,1018.02
2016-12-20T02:07:20.454Z,1017.98
2016-12-20T02:08:23.899Z,1017.92
2016-12-20T02:09:27.362Z,1017.96
2016-12-20T02:10:30.809Z,1017.93
2016-12-20T02:11:34.256Z,1017.95
2016-12-20T02:12:37.723Z,1017.93
2016-12-20T02:13:41.177Z,1017.96
2016-12-20T02:14:44.620Z,1017.95
2016-12-20T02:15:48.085Z,1017.95
2016-12-20T02:16:51.532Z,1017.85
2016-12-20T02:17:54.978Z,1017.85
2016-12-20T02:18:58.446Z,1017.86
2016-12-20T02:20:01.896Z,1017.87
2016-12-20T02:21:05.343Z,1017.83
2016-12-20T02:22:08.809Z,1017.82
2016-12-20T02:23:12.255Z,1017.83
2016-12-20T02:24:15.702Z,1017.8
2016-12-20T02:25:19.155Z,1017.8
2016-12-20T02:26:22.598Z,1017.78
2016-12-20T02:27:26.052Z,1017.77
2016-12-20T02:28:29.497Z,1017.78
2016-12-20T02:29:32.942Z,1017.8
2016-12-20T02:30:36.406Z,1017.77
2016-12-20T02:31:39.852Z,1017.75
2016-12-20T02:32:43.300Z,1017.75
2016-12-20T02:33:46.768Z,1017.79
2016-12-20T02:34:50.214Z,1017.78
2016-12-20T02:35:53.661Z,1017.72
2016-12-20T02:36:57.111Z,1017.68
2016-12-20T02:38:00.557Z,1017.68
2016-12-20T02:39:04.009Z,1017.65
2016-12-20T02:40:07.455Z,1017.64
2016-12-20T02:41:10.896Z,1017.65
2016-12-20T02:42:14.351Z,1017.68
2016-12-20T02:43:17.793Z,1017.65
2016-12-20T02:44:21.245Z,1017.7
2016-12-20T02:45:24.693Z,1017.69
2016-12-20T02:46:28.135Z,1017.65
2016-12-20T02:47:31.600Z,1017.6
2016-12-20T02:48:35.047Z,1017.58
2016-12-20T02:49:38.493Z,1017.51
2016-12-20T02:50:41.946Z,1017.52
2016-12-20T02:51:45.389Z,1017.54
2016-12-20T02:52:48.842Z,1017.52
2016-12-20T02:53:52.288Z,1017.49
2016-12-20T02:54:55.729Z,1017.47
2016-12-20T02:55:59.181Z,1017.47
2016-12-20T02:57:02.625Z,1017.45
2016-12-20T02:58:06.078Z,1017.41
2016-12-20T02:59:09.523Z,1017.4
2016-12-20T03:00:12.965Z,1017.42
2016-12-20T03:01:16.433Z,1017.44
2016-12-20T03:02:19.879Z,1017.47
2016-12-20T03:03:23.327Z,1017.47
2016-12-20T03:04:26.794Z,1017.47
2016-12-20T03:05:30.243Z,1017.45
2016-12-20T03:06:33.689Z,1017.49
2016-12-20T03:07:37.156Z,1017.52
2016-12-20T03:08:40.603Z,1017.54
2016-12-20T03:09:44.049Z,1017.56
2016-12-20T03:10:47.503Z,1017.5
2016-12-20T03:11:50.946Z,1017.5
2016-12-20T03:12:54.398Z,1017.48
2016-12-20T03:13:57.843Z,1017.46
2016-12-20T03:15:01.284Z,1017.45
2016-12-20T03:16:04.737Z,1017.46
2016-12-20T03:17:08.197Z,1017.45
2016-12-20T03:18:11.646Z,1017.42
2016-12-20T03:19:15.098Z,1017.46
2016-12-20T03:20:18.544Z,1017.47
2016-12-20T03:21:21.995Z,1017.45
2016-12-20T03:22:25.442Z,1017.46
2016-12-20T03:23:28.886Z,1017.42
2016-12-20T03:24:32.350Z,1017.39
2016-12-20T03:25:35.799Z,1017.41
2016-12-20T03:26:39.243Z,1017.43
2016-12-20T03:27:42.712Z,1017.4
2016-12-20T03:28:46.158Z,1017.38
2016-12-20T03:29:49.606Z,1017.35
2016-12-20T03:30:53.058Z,1017.34
2016-12-20T03:31:56.501Z,1017.28
2016-12-20T03:32:59.954Z,1017.27
2016-12-20T03:34:03.398Z,1017.25
2016-12-20T03:35:06.842Z,1017.19
2016-12-20T03:36:10.310Z,1017.15
2016-12-20T03:37:13.756Z,1017.15
2016-12-20T03:38:17.203Z,1017.13
2016-12-20T03:39:20.671Z,1017.09
2016-12-20T03:40:24.118Z,1017.11
2016-12-20T03:41:27.565Z,1017.1
2016-12-20T03:42:31.033Z,1017.07
2016-12-20T03:43:34.479Z,1017.08
2016-12-20T03:44:37.927Z,1017.09
2016-12-20T03:45:41.394Z,1017.14
2016-12-20T03:46:44.843Z,1017.16
2016-12-20T03:47:48.288Z,1017.17
2016-12-20T03:48:51.757Z,1017.14
2016-12-20T03:49:55.207Z,1017.15
2016-12-20T03:50:58.653Z,1017.1
2016-12-20T03:52:02.117Z,1017.06
2016-12-20T03:53:05.568Z,1017.05
2016-12-20T03:54:09.010Z,1017.06
2016-12-20T03:55:12.465Z,1017.12
2016-12-20T03:56:15.907Z,1017.14
2016-12-20T03:57:19.364Z,1017.15
2016-12-20T03:58:22.813Z,1017.18
2016-12-20T03:59:26.259Z,1017.19
2016-12-20T04:00:29.721Z,1017.19
2016-12-20T04:01:33.172Z,1017.2
2016-12-20T04:02:36.621Z,1017.17
2016-12-20T04:03:40.083Z,1017.24
2016-12-20T04:04:43.528Z,1017.2
2016-12-20T04:05:46.974Z,1017.12
2016-12-20T04:06:50.445Z,1017.14
2016-12-20T04:07:53.888Z,1017.11
2016-12-20T04:08:57.331Z,1017.13
2016-12-20T04:10:00.785Z,1017.12
2016-12-20T04:11:04.227Z,1017.17
2016-12-20T04:12:07.685Z,1017.18
2016-12-20T04:13:11.136Z,1017.18
2016-12-20T04:14:14.588Z,1017.16
2016-12-20T04:15:18.041Z,1017.18
2016-12-20T04:16:21.489Z,1017.22
2016-12-20T04:17:24.934Z,1017.2
2016-12-20T04:18:28.396Z,1017.23
2016-12-20T04:19:31.846Z,1017.25
2016-12-20T04:20:35.291Z,1017.23
2016-12-20T04:21:38.742Z,1017.23
2016-12-20T04:22:42.186Z,1017.22
2016-12-20T04:23:45.638Z,1017.23
2016-12-20T04:24:49.087Z,1017.2
2016-12-20T04:25:52.532Z,1017.25
2016-12-20T04:26:55.992Z,1017.23
2016-12-20T04:27:59.443Z,1017.24
2016-12-20T04:29:02.888Z,1017.19
2016-12-20T04:30:06.354Z,1017.17
2016-12-20T04:31:09.804Z,1017.16
2016-12-20T04:32:13.248Z,1017.19
2016-12-20T04:33:16.700Z,1017.26
2016-12-20T04:34:20.145Z,1017.32
2016-12-20T04:35:23.601Z,1017.3
2016-12-20T04:36:27.053Z,1017.29
2016-12-20T04:37:30.508Z,1017.25
2016-12-20T04:38:33.959Z,1017.2
2016-12-20T04:39:37.408Z,1017.23
2016-12-20T04:40:40.856Z,1017.2
2016-12-20T04:41:44.320Z,1017.12
2016-12-20T04:42:47.772Z,1017.1
2016-12-20T04:43:51.217Z,1017.1
2016-12-20T04:44:54.675Z,1017.09
2016-12-20T04:45:58.124Z,1017.1
2016-12-20T04:47:01.569Z,1017.08
2016-12-20T04:48:05.037Z,1017.12
2016-12-20T04:49:08.483Z,1017.07
2016-12-20T04:50:11.932Z,1017.07
2016-12-20T04:51:15.399Z,1017.03
2016-12-20T04:52:18.846Z,1017.01
2016-12-20T04:53:22.295Z,1016.96
2016-12-20T04:54:25.760Z,1016.97
2016-12-20T04:55:29.207Z,1016.97
2016-12-20T04:56:32.656Z,1016.97
2016-12-20T04:57:36.122Z,1016.93
2016-12-20T04:58:39.571Z,1016.9
2016-12-20T04:59:43.016Z,1016.89
2016-12-20T05:00:46.484Z,1016.84
2016-12-20T05:01:49.930Z,1016.78
2016-12-20T05:02:53.378Z,1016.74
2016-12-20T05:03:56.845Z,1016.75
2016-12-20T05:05:00.299Z,1016.85
2016-12-20T05:06:03.741Z,1016.83
2016-12-20T05:07:07.207Z,1016.83
2016-12-20T05:08:10.656Z,1016.79
2016-12-20T05:09:14.102Z,1016.77
2016-12-20T05:10:17.573Z,1016.74
2016-12-20T05:11:21.017Z,1016.74
2016-12-20T05:12:24.463Z,1016.68
2016-12-20T05:13:27.929Z,1016.7
2016-12-20T05:14:31.393Z,1016.67
2016-12-20T05:15:34.846Z,1016.68
2016-12-20T05:16:38.298Z,1016.69
2016-12-20T05:17:41.749Z,1016.67
2016-12-20T05:18:45.198Z,1016.69
2016-12-20T05:19:48.660Z,1016.71
2016-12-20T05:20:52.109Z,1016.77
2016-12-20T05:21:55.552Z,1016.73
2016-12-20T05:22:59.015Z,1016.76
2016-12-20T05:24:02.463Z,1016.73
2016-12-20T05:25:05.910Z,1016.69
2016-12-20T05:26:09.383Z,1016.69
2016-12-20T05:27:12.833Z,1016.61
2016-12-20T05:28:16.278Z,1016.61
2016-12-20T05:29:19.739Z,1016.65
2016-12-20T05:30:23.187Z,1016.68
2016-12-20T05:31:26.631Z,1016.65
2016-12-20T05:32:30.086Z,1016.69
2016-12-20T05:33:33.528Z,1016.67
2016-12-20T05:34:36.984Z,1016.66
2016-12-20T05:35:40.433Z,1016.65
2016-12-20T05:36:43.875Z,1016.62
2016-12-20T05:37:47.336Z,1016.63
2016-12-20T05:38:50.784Z,1016.59
2016-12-20T05:39:54.229Z,1016.57
2016-12-20T05:40:57.698Z,1016.63
2016-12-20T05:42:01.144Z,1016.65
2016-12-20T05:43:04.594Z,1016.65
2016-12-20T05:44:08.059Z,1016.61
2016-12-20T05:45:11.507Z,1016.61
2016-12-20T05:46:14.958Z,1016.65
2016-12-20T05:47:18.406Z,1016.63
2016-12-20T05:48:21.848Z,1016.61
2016-12-20T05:49:25.304Z,1016.6
2016-12-20T05:50:28.756Z,1016.62
2016-12-20T05:51:32.202Z,1016.56
2016-12-20T05:52:35.682Z,1016.53
2016-12-20T05:53:39.124Z,1016.52
2016-12-20T05:54:42.571Z,1016.51
2016-12-20T05:55:46.031Z,1016.5
2016-12-20T05:56:49.481Z,1016.48
2016-12-20T05:57:52.932Z,1016.43
2016-12-20T05:58:56.385Z,1016.39
2016-12-20T05:59:59.857Z,1016.45
2016-12-20T06:01:03.296Z,1016.47
2016-12-20T06:02:06.752Z,1016.5
2016-12-20T06:03:10.213Z,1016.48
2016-12-20T06:04:13.656Z,1016.43
2016-12-20T06:05:17.109Z,1016.41
2016-12-20T06:06:20.563Z,1016.37
2016-12-20T06:07:24.007Z,1016.41
2016-12-20T06:08:27.471Z,1016.49
2016-12-20T06:09:30.919Z,1016.51
2016-12-20T06:11:01.848Z,1016.47
2016-12-20T06:12:05.289Z,1016.47
2016-12-20T06:13:08.747Z,1016.41
2016-12-20T06:14:12.185Z,1016.43
2016-12-20T06:15:15.642Z,1016.47
2016-12-20T06:16:19.091Z,1016.46
2016-12-20T06:17:22.529Z,1016.49
2016-12-20T06:18:25.990Z,1016.49
2016-12-20T06:19:56.331Z,1016.4
2016-12-20T06:20:59.794Z,1016.41
2016-12-20T06:22:03.262Z,1016.4
2016-12-20T06:23:06.696Z,1016.42
2016-12-20T06:24:10.160Z,1016.44
2016-12-20T06:25:13.615Z,1016.47
2016-12-20T06:26:17.065Z,1016.46
2016-12-20T06:27:20.520Z,1016.43
2016-12-20T06:28:23.960Z,1016.39
2016-12-20T06:29:27.413Z,1016.37
2016-12-20T06:30:30.882Z,1016.38
2016-12-20T06:31:34.335Z,1016.41
2016-12-20T06:32:37.775Z,1016.39
2016-12-20T06:33:41.229Z,1016.38
2016-12-20T06:34:44.672Z,1016.38
2016-12-20T06:35:48.124Z,1016.4
2016-12-20T06:36:51.578Z,1016.4
2016-12-20T06:37:55.033Z,1016.38
2016-12-20T06:38:58.483Z,1016.38
2016-12-20T06:40:01.934Z,1016.36
2016-12-20T06:41:05.373Z,1016.34
2016-12-20T06:42:08.844Z,1016.33
2016-12-20T06:43:12.271Z,1016.35
2016-12-20T06:44:15.737Z,1016.31
2016-12-20T06:45:19.214Z,1016.28
2016-12-20T06:46:22.692Z,1016.28
2016-12-20T06:47:53.714Z,1016.34
2016-12-20T06:48:57.152Z,1016.32
2016-12-20T06:50:00.609Z,1016.29
2016-12-20T06:51:04.071Z,1016.27
2016-12-20T06:52:07.513Z,1016.29
2016-12-20T06:53:10.965Z,1016.36
2016-12-20T06:54:14.427Z,1016.41
2016-12-20T06:55:17.881Z,1016.41
2016-12-20T06:56:21.319Z,1016.42
2016-12-20T06:57:24.773Z,1016.42
2016-12-20T06:58:28.223Z,1016.37
2016-12-20T06:59:59.087Z,1016.36
2016-12-20T07:01:02.539Z,1016.32
2016-12-20T07:02:05.990Z,1016.4
2016-12-20T07:03:09.428Z,1016.44
2016-12-20T07:04:12.885Z,1016.52
2016-12-20T07:05:16.326Z,1016.48
2016-12-20T07:06:19.788Z,1016.51
2016-12-20T07:07:23.247Z,1016.54
2016-12-20T07:09:57.005Z,1016.47
2016-12-20T07:11:00.446Z,1016.46
2016-12-20T07:12:03.908Z,1016.45
2016-12-20T07:13:07.362Z,1016.42
2016-12-20T07:14:10.793Z,1016.42
2016-12-20T07:15:14.252Z,1016.4
2016-12-20T07:16:17.702Z,1016.38
2016-12-20T07:17:21.167Z,1016.29
2016-12-20T07:18:24.638Z,1016.2
2016-12-20T07:19:28.097Z,1016.17
2016-12-20T07:20:31.561Z,1016.07
2016-12-20T07:21:35.006Z,1016.12
2016-12-20T07:22:38.438Z,1016.13
2016-12-20T07:24:09.302Z,1016.14
2016-12-20T07:25:12.747Z,1016.17
2016-12-20T07:26:16.200Z,1016.15
2016-12-20T07:27:19.668Z,1016.09
2016-12-20T07:28:23.103Z,1016.11
2016-12-20T07:29:26.561Z,1016.13
2016-12-20T07:30:30.546Z,1016.1
2016-12-20T07:31:34.037Z,1016.1
2016-12-20T07:32:37.488Z,1016.07
2016-12-20T07:33:40.929Z,1016.15
2016-12-20T07:34:44.388Z,1016.16
2016-12-20T07:35:47.835Z,1016.21
2016-12-20T07:36:51.292Z,1016.2
2016-12-20T07:38:22.191Z,1016.18
2016-12-20T07:39:25.644Z,1016.16
2016-12-20T07:40:29.097Z,1016.15
2016-12-20T07:41:32.551Z,1016.12
2016-12-20T07:42:36.000Z,1016.1
2016-12-20T07:43:39.423Z,1016.01
2016-12-20T07:46:11.454Z,1016.17
2016-12-20T07:47:14.914Z,1016.09
2016-12-20T07:48:18.365Z,1016.07
2016-12-20T07:49:21.811Z,1016.09
2016-12-20T07:50:25.310Z,1016.07
2016-12-20T07:51:28.744Z,1016.06
2016-12-20T07:52:32.191Z,1016.08
2016-12-20T07:53:35.642Z,1016.11
2016-12-20T07:54:39.106Z,1016.1
2016-12-20T07:55:42.564Z,1016.12
2016-12-20T07:56:46.004Z,1016.12
2016-12-20T07:59:19.545Z,1015.99
2016-12-20T08:00:22.988Z,1016.01
2016-12-20T08:01:26.452Z,1016.04
2016-12-20T08:02:30.896Z,1016.04
2016-12-20T08:04:01.726Z,1016.05
2016-12-20T08:05:05.182Z,1016.05
2016-12-20T08:06:08.649Z,1016.04
2016-12-20T08:07:12.089Z,1016.04
2016-12-20T08:08:15.555Z,1016.06
2016-12-20T08:09:19.016Z,1016.1
2016-12-20T08:10:22.455Z,1016.2
2016-12-20T08:11:25.908Z,1016.19
2016-12-20T08:12:29.383Z,1016.22
2016-12-20T08:13:32.848Z,1016.19
2016-12-20T08:14:36.298Z,1016.2
2016-12-20T08:15:39.750Z,1016.2
2016-12-20T08:16:43.204Z,1016.21
2016-12-20T08:17:46.660Z,1016.2
2016-12-20T08:18:50.116Z,1016.24
2016-12-20T08:19:53.569Z,1016.24
2016-12-20T08:20:57.017Z,1016.29
2016-12-20T08:22:00.485Z,1016.3
2016-12-20T08:23:03.967Z,1016.25
2016-12-20T08:24:07.417Z,1016.23
2016-12-20T08:25:10.884Z,1016.24
2016-12-20T08:26:14.357Z,1016.21
2016-12-20T08:28:46.395Z,1016.24
2016-12-20T08:29:49.849Z,1016.26
2016-12-20T08:30:53.298Z,1016.24
2016-12-20T08:31:56.747Z,1016.2
2016-12-20T08:33:00.199Z,1016.16
2016-12-20T08:34:03.646Z,1016.06
2016-12-20T08:35:07.109Z,1016.11
2016-12-20T08:36:10.563Z,1016.12
2016-12-20T08:37:14.013Z,1016.11
2016-12-20T08:38:17.476Z,1016.09
2016-12-20T08:39:20.916Z,1016.12
2016-12-20T08:40:24.367Z,1016.08
2016-12-20T08:41:27.839Z,1016.05
2016-12-20T08:42:31.266Z,1016.03
2016-12-20T08:43:34.731Z,1016.01
2016-12-20T08:44:38.206Z,1016.02
2016-12-20T08:45:41.650Z,1016.06
2016-12-20T08:46:45.100Z,1016.06
2016-12-20T08:47:48.562Z,1016.05
2016-12-20T08:48:52.028Z,1016.04
2016-12-20T08:49:55.472Z,1016.05
2016-12-20T08:50:58.922Z,1016.08
2016-12-20T08:52:02.408Z,1016.11
2016-12-20T08:53:05.855Z,1016.07
2016-12-20T08:54:09.302Z,1016.08
2016-12-20T08:55:12.772Z,1016.06
2016-12-20T08:56:16.216Z,1016.07
2016-12-20T08:57:19.653Z,1016.13
2016-12-20T08:58:23.129Z,1016.1
2016-12-20T08:59:26.587Z,1016.12
2016-12-20T09:00:30.036Z,1016.09
2016-12-20T09:01:33.474Z,1016.07
2016-12-20T09:02:36.924Z,1016.02
2016-12-20T09:03:40.389Z,1016.01
2016-12-20T09:04:43.833Z,1016.07
2016-12-20T09:05:47.272Z,1016.07
2016-12-20T09:06:50.733Z,1016.1
2016-12-20T09:07:54.185Z,1016.19
2016-12-20T09:08:57.641Z,1016.19
2016-12-20T09:10:01.099Z,1016.24
2016-12-20T09:12:33.172Z,1016.32
2016-12-20T09:13:36.626Z,1016.34
2016-12-20T09:14:40.069Z,1016.3
2016-12-20T09:15:43.531Z,1016.29
2016-12-20T09:16:46.990Z,1016.24
2016-12-20T09:17:50.434Z,1016.21
2016-12-20T09:18:53.881Z,1016.2
2016-12-20T09:19:57.324Z,1016.15
2016-12-20T09:21:00.792Z,1016.17
2016-12-20T09:22:04.254Z,1016.2
2016-12-20T09:23:07.722Z,1016.16
2016-12-20T09:24:11.163Z,1016.19
2016-12-20T09:26:43.138Z,1016.1
2016-12-20T09:27:46.587Z,1016.1
2016-12-20T09:28:50.059Z,1016.12
2016-12-20T09:29:53.504Z,1016.12
2016-12-20T09:30:56.947Z,1016.17
2016-12-20T09:32:00.418Z,1016.13
2016-12-20T09:33:31.672Z,1016.1
2016-12-20T09:34:35.159Z,1016.07
2016-12-20T09:35:38.620Z,1016.06
2016-12-20T09:36:42.059Z,1016.06
2016-12-20T09:37:45.508Z,1016.07
2016-12-20T09:40:18.703Z,1016.09
2016-12-20T09:41:22.154Z,1016.14
2016-12-20T09:42:25.608Z,1016.13
2016-12-20T09:43:29.069Z,1016.09
2016-12-20T09:44:32.527Z,1016.09
2016-12-20T09:45:35.977Z,1016.11
2016-12-20T09:46:39.437Z,1016.05
2016-12-20T09:47:42.909Z,1016.05
2016-12-20T09:48:46.361Z,1016.08
2016-12-20T09:49:49.823Z,1016.09
2016-12-20T09:50:53.271Z,1016.07
2016-12-20T09:51:56.724Z,1016.01
2016-12-20T09:53:00.180Z,1015.96
2016-12-20T09:54:03.640Z,1015.97
2016-12-20T09:55:07.121Z,1015.98
2016-12-20T09:56:10.553Z,1016
2016-12-20T09:58:23.811Z,1015.95
2016-12-20T09:59:52.874Z,1015.96
2016-12-20T10:00:56.328Z,1015.96
2016-12-20T10:01:59.794Z,1015.92
2016-12-20T10:03:03.244Z,1015.9
2016-12-20T10:04:07.451Z,1015.9
2016-12-20T10:05:36.612Z,1015.86
2016-12-20T10:06:40.067Z,1015.89
2016-12-20T10:07:43.543Z,1015.83
2016-12-20T10:10:16.704Z,1015.81
2016-12-20T10:11:20.146Z,1015.84
2016-12-20T10:12:23.608Z,1015.81
2016-12-20T10:13:27.069Z,1015.81
2016-12-20T10:14:57.576Z,1015.79
2016-12-20T10:16:01.025Z,1015.78
2016-12-20T10:17:04.482Z,1015.79
2016-12-20T10:18:07.924Z,1015.76
2016-12-20T10:19:11.385Z,1015.79
2016-12-20T10:20:14.832Z,1015.77
2016-12-20T10:21:18.300Z,1015.75
2016-12-20T10:22:21.755Z,1015.72
2016-12-20T10:24:55.442Z,1015.72
2016-12-20T10:26:27.064Z,1015.71
2016-12-20T10:27:55.946Z,1015.72
2016-12-20T10:28:59.388Z,1015.7
2016-12-20T10:30:02.840Z,1015.68
2016-12-20T10:31:06.288Z,1015.69
2016-12-20T10:32:09.734Z,1015.67
2016-12-20T10:33:13.203Z,1015.67
2016-12-20T10:34:16.649Z,1015.65
2016-12-20T10:35:20.096Z,1015.6
2016-12-20T10:36:23.584Z,1015.54
2016-12-20T10:37:27.005Z,1015.53
2016-12-20T10:38:30.473Z,1015.48
2016-12-20T10:39:34.413Z,1015.52
2016-12-20T10:40:37.866Z,1015.48
2016-12-20T10:41:41.310Z,1015.48
2016-12-20T10:42:44.766Z,1015.44
2016-12-20T10:43:48.205Z,1015.41
2016-12-20T10:44:51.672Z,1015.42
2016-12-20T10:45:55.123Z,1015.41
2016-12-20T10:46:59.475Z,1015.45
2016-12-20T10:48:02.938Z,1015.42
2016-12-20T10:49:06.382Z,1015.44
2016-12-20T10:50:09.838Z,1015.37
2016-12-20T10:52:41.625Z,1015.42
2016-12-20T10:53:45.058Z,1015.43
2016-12-20T10:54:48.496Z,1015.4
2016-12-20T10:55:51.955Z,1015.39
2016-12-20T10:56:55.404Z,1015.34
2016-12-20T10:57:58.864Z,1015.35
2016-12-20T10:59:02.349Z,1015.38
2016-12-20T11:00:05.810Z,1015.35
2016-12-20T11:01:09.263Z,1015.39
2016-12-20T11:02:12.715Z,1015.35
2016-12-20T11:04:44.383Z,1015.27
2016-12-20T11:08:44.271Z,1015.1
2016-12-20T11:09:47.733Z,1015.06
2016-12-20T11:10:51.174Z,1015.04
2016-12-20T11:11:54.637Z,1015.01
2016-12-20T11:12:58.107Z,1014.98
2016-12-20T11:14:01.572Z,1014.98
2016-12-20T11:15:05.030Z,1014.98
2016-12-20T11:16:08.486Z,1014.97
2016-12-20T11:17:11.948Z,1014.9
2016-12-20T11:18:15.393Z,1014.88
2016-12-20T11:19:18.846Z,1014.87
2016-12-20T11:20:22.315Z,1014.8
2016-12-20T11:21:25.803Z,1014.83
2016-12-20T11:22:29.272Z,1014.81
2016-12-20T11:23:32.731Z,1014.84
2016-12-20T11:24:36.199Z,1014.79
2016-12-20T11:25:39.641Z,1014.8
2016-12-20T11:26:43.086Z,1014.78
2016-12-20T11:27:46.546Z,1014.75
2016-12-20T11:28:50.005Z,1014.69
2016-12-20T11:29:53.453Z,1014.67
2016-12-20T11:30:56.906Z,1014.68
2016-12-20T11:32:00.376Z,1014.72
2016-12-20T11:33:03.839Z,1014.67
2016-12-20T11:34:07.285Z,1014.67
2016-12-20T11:36:33.291Z,1015.82
2016-12-20T11:37:36.720Z,1015.79
2016-12-20T11:39:07.240Z,1015.74
2016-12-20T11:40:11.623Z,1015.76
2016-12-20T11:41:15.095Z,1015.75
2016-12-20T11:42:18.550Z,1015.73
2016-12-20T11:43:23.812Z,1015.76
2016-12-20T11:44:27.198Z,1015.74
2016-12-20T11:45:30.651Z,1015.67
2016-12-20T11:46:34.091Z,1015.67
2016-12-20T11:47:37.543Z,1015.61
2016-12-20T11:48:40.994Z,1015.58
2016-12-20T11:49:44.450Z,1015.63
2016-12-20T11:50:47.921Z,1015.6
2016-12-20T11:51:51.348Z,1015.64
2016-12-20T11:52:54.799Z,1015.6
2016-12-20T11:53:58.251Z,1015.58
2016-12-20T11:55:01.688Z,1015.57
2016-12-20T11:56:05.151Z,1015.53
2016-12-20T11:57:08.584Z,1015.55
2016-12-20T11:58:12.035Z,1015.5
2016-12-20T11:59:15.470Z,1015.48
2016-12-20T12:00:18.943Z,1015.46
2016-12-20T12:01:22.390Z,1015.46
2016-12-20T12:02:25.834Z,1015.47
2016-12-20T12:03:29.277Z,1015.44
2016-12-20T12:04:32.724Z,1015.4
2016-12-20T12:05:36.202Z,1015.33
2016-12-20T12:06:39.642Z,1015.33
2016-12-20T12:07:43.130Z,1015.31
2016-12-20T12:08:46.600Z,1015.29
2016-12-20T12:09:50.028Z,1015.33
2016-12-20T12:10:53.492Z,1015.36
2016-12-20T12:11:56.962Z,1015.39
2016-12-20T12:13:00.421Z,1015.42
2016-12-20T12:14:03.875Z,1015.42
2016-12-20T12:15:07.323Z,1015.39
2016-12-20T12:16:10.778Z,1015.36
2016-12-20T12:17:14.208Z,1015.33
2016-12-20T12:18:17.624Z,1015.35
2016-12-20T12:19:21.072Z,1015.39
2016-12-20T12:20:24.500Z,1015.36
2016-12-20T12:21:27.954Z,1015.33
2016-12-20T12:22:31.397Z,1015.33
2016-12-20T12:23:34.841Z,1015.37
2016-12-20T12:24:38.306Z,1015.38
2016-12-20T12:25:41.761Z,1015.35
2016-12-20T12:26:45.193Z,1015.35
2016-12-20T12:27:48.661Z,1015.32
2016-12-20T12:28:52.105Z,1015.33
2016-12-20T12:29:55.553Z,1015.32
2016-12-20T12:30:58.986Z,1015.3
2016-12-20T12:32:02.432Z,1015.28
2016-12-20T12:33:06.147Z,1015.29
2016-12-20T12:34:09.598Z,1015.28
2016-12-20T12:35:13.060Z,1015.23
2016-12-20T12:36:16.512Z,1015.25
2016-12-20T12:37:19.965Z,1015.29
2016-12-20T12:38:23.413Z,1015.24
2016-12-20T12:39:26.855Z,1015.21
2016-12-20T12:40:30.323Z,1015.18
2016-12-20T12:41:33.767Z,1015.13
2016-12-20T12:42:37.202Z,1015.12
2016-12-20T12:43:40.680Z,1015.09
2016-12-20T12:44:44.128Z,1015.05
2016-12-20T12:45:47.578Z,1015.03
2016-12-20T12:46:51.051Z,1015.02
2016-12-20T12:47:54.500Z,1015.02
2016-12-20T12:48:57.960Z,1014.92
2016-12-20T12:50:01.405Z,1014.91
2016-12-20T12:51:04.864Z,1014.87
2016-12-20T12:52:08.317Z,1014.85
2016-12-20T12:53:11.774Z,1014.84
2016-12-20T12:54:15.228Z,1014.86
2016-12-20T12:55:19.337Z,1014.85
2016-12-20T12:56:48.978Z,1014.86
2016-12-20T12:57:52.450Z,1014.85
2016-12-20T12:58:55.936Z,1014.79
2016-12-20T12:59:59.406Z,1014.75
2016-12-20T13:01:02.854Z,1014.7
2016-12-20T13:03:36.072Z,1014.76
2016-12-20T13:04:39.524Z,1014.72
2016-12-20T13:05:42.976Z,1014.71
2016-12-20T13:06:46.424Z,1014.71
2016-12-20T13:07:49.864Z,1014.76
2016-12-20T13:08:53.338Z,1014.7
2016-12-20T13:09:56.802Z,1014.69
2016-12-20T13:11:00.271Z,1014.65
2016-12-20T13:12:03.713Z,1014.6
2016-12-20T13:13:07.180Z,1014.58
2016-12-20T13:14:10.617Z,1014.58
2016-12-20T13:15:14.071Z,1014.62
2016-12-20T13:16:17.555Z,1014.57
2016-12-20T13:17:21.005Z,1014.6
2016-12-20T13:18:24.438Z,1014.58
2016-12-20T13:19:27.899Z,1014.54
2016-12-20T13:20:31.357Z,1014.6
2016-12-20T13:21:34.802Z,1014.58
2016-12-20T13:22:38.270Z,1014.62
2016-12-20T13:23:41.725Z,1014.56
2016-12-20T13:24:45.179Z,1014.55
2016-12-20T13:25:48.634Z,1014.54
2016-12-20T13:26:52.099Z,1014.51
2016-12-20T13:27:55.548Z,1014.5
2016-12-20T13:28:58.993Z,1014.51
2016-12-20T13:30:02.477Z,1014.55
2016-12-20T13:31:05.951Z,1014.5
2016-12-20T13:32:09.395Z,1014.55
2016-12-20T13:33:12.851Z,1014.56
2016-12-20T13:34:16.334Z,1014.61
2016-12-20T13:35:19.792Z,1014.64
2016-12-20T13:36:23.217Z,1014.67